Time;durP1;ratioP1;P1;durP2;ratioP2;P2;SDS_P1;SDS_P2;PMS_P1;PMS_P2;Temp;Humidity;BMP_temperature;BMP_pressure;BME280_temperature;BME280_humidity;BME280_pressure;Samples;Min_cycle;Max_cycle;Signal;HPM_P1;HPM_P2
2021/03/19 00:00:18;;;;;;;2.53;1.63;;;-0.90;99.90;;;;;;4928698;29;20035;-49
2021/03/19 00:02:43;;;;;;;1.80;1.50;;;-0.80;99.90;;;;;;4928342;29;20493;-47
2021/03/19 00:05:12;;;;;;;3.00;1.45;;;-0.80;99.90;;;;;;4928748;29;20031;-49
2021/03/19 00:07:53;;;;;;;2.03;1.63;;;-0.80;99.90;;;;;;4928671;29;20051;-48
2021/03/19 00:10:22;;;;;;;2.55;1.55;;;-0.80;99.90;;;;;;4927779;29;20024;-49
2021/03/19 00:12:49;;;;;;;4.32;1.70;;;-0.80;99.90;;;;;;4929456;29;20036;-49
2021/03/19 00:15:16;;;;;;;3.45;1.80;;;-0.90;99.90;;;;;;4927953;29;20486;-48
2021/03/19 00:17:42;;;;;;;2.75;1.35;;;-0.90;99.90;;;;;;4919816;29;20078;-46
2021/03/19 00:20:09;;;;;;;2.63;1.67;;;-0.90;99.90;;;;;;4928582;29;20052;-48
2021/03/19 00:22:35;;;;;;;5.40;1.77;;;-0.90;99.90;;;;;;4928367;29;20024;-46
2021/03/19 00:25:00;;;;;;;2.22;1.45;;;-0.80;99.90;;;;;;4928545;29;20027;-46
2021/03/19 00:27:26;;;;;;;2.22;1.33;;;-0.80;99.90;;;;;;4923221;28;20039;-48
2021/03/19 00:29:52;;;;;;;2.78;1.70;;;-0.80;99.90;;;;;;4928872;29;20106;-48
2021/03/19 00:32:18;;;;;;;2.17;1.40;;;-0.80;99.90;;;;;;4928475;29;20477;-47
2021/03/19 00:34:44;;;;;;;1.67;1.48;;;-0.80;99.90;;;;;;4927695;29;20035;-46
2021/03/19 00:37:09;;;;;;;2.47;1.30;;;-0.70;99.90;;;;;;4928231;29;20027;-46
2021/03/19 00:39:35;;;;;;;3.03;1.35;;;-0.70;99.90;;;;;;4927183;28;20030;-45
2021/03/19 00:42:01;;;;;;;1.88;1.33;;;-0.70;99.90;;;;;;4928250;29;20034;-46
2021/03/19 00:44:28;;;;;;;2.17;1.27;;;-0.70;99.90;;;;;;4921301;29;20016;-46
2021/03/19 00:46:54;;;;;;;1.23;1.13;;;-0.80;99.90;;;;;;4925150;28;20027;-47
2021/03/19 00:49:20;;;;;;;2.83;1.35;;;-0.80;99.90;;;;;;4927108;29;20035;-47
2021/03/19 00:51:46;;;;;;;4.38;1.50;;;-0.80;99.90;;;;;;4928402;29;20024;-46
2021/03/19 00:54:12;;;;;;;2.13;1.50;;;-0.80;99.90;;;;;;4928100;29;20641;-49
2021/03/19 00:56:37;;;;;;;1.95;1.33;;;-0.80;99.90;;;;;;4928210;29;20086;-46
2021/03/19 00:59:07;;;;;;;2.97;1.75;;;-0.80;99.90;;;;;;4917946;28;20032;-47
2021/03/19 01:01:37;;;;;;;2.10;1.40;;;-0.90;99.90;;;;;;4927967;29;20028;-46
2021/03/19 01:04:03;;;;;;;2.35;1.48;;;-0.90;99.90;;;;;;5056524;22;20052;-57
2021/03/19 01:06:29;;;;;;;2.13;1.25;;;-0.90;99.90;;;;;;5063247;28;20028;-56
2021/03/19 01:08:55;;;;;;;2.80;1.50;;;-0.90;99.90;;;;;;5051204;28;20040;-56
2021/03/19 01:11:20;;;;;;;4.70;1.60;;;-0.90;99.90;;;;;;5052787;28;20395;-56
2021/03/19 01:13:46;;;;;;;2.35;1.63;;;-0.90;99.90;;;;;;5058414;28;20095;-54
2021/03/19 01:16:12;;;;;;;1.33;1.23;;;-0.90;99.90;;;;;;5056274;28;20032;-56
2021/03/19 01:18:38;;;;;;;1.45;1.35;;;-1.00;99.90;;;;;;5062780;28;20029;-57
2021/03/19 01:21:04;;;;;;;3.10;2.10;;;-1.00;99.90;;;;;;5046350;28;20044;-57
2021/03/19 01:23:30;;;;;;;3.25;1.70;;;-1.10;99.90;;;;;;5051492;28;20102;-56
2021/03/19 01:25:55;;;;;;;2.03;1.55;;;-1.10;99.90;;;;;;5048015;28;20067;-55
2021/03/19 01:28:21;;;;;;;2.20;1.85;;;-1.10;99.90;;;;;;5048214;28;20021;-55
2021/03/19 01:30:47;;;;;;;3.15;1.90;;;-1.20;99.90;;;;;;5047108;28;20031;-55
2021/03/19 01:33:13;;;;;;;4.18;1.35;;;-1.20;99.90;;;;;;5040166;28;20103;-56
2021/03/19 01:35:40;;;;;;;2.35;2.15;;;-1.30;99.90;;;;;;5048816;28;20029;-52
2021/03/19 01:38:08;;;;;;;3.60;1.90;;;-1.30;99.90;;;;;;5056132;28;20489;-57
2021/03/19 01:40:45;;;;;;;2.78;1.70;;;-1.30;99.90;;;;;;5051610;28;20406;-54
2021/03/19 01:43:16;;;;;;;2.38;1.73;;;-1.40;99.90;;;;;;5051443;28;20102;-55
2021/03/19 01:46:20;;;;;;;2.50;1.60;;;-1.40;99.90;;;;;;5051645;28;20100;-55
2021/03/19 01:49:25;;;;;;;2.72;1.90;;;-1.40;99.90;;;;;;5047865;28;20048;-56
2021/03/19 01:52:28;;;;;;;3.85;2.00;;;-1.50;99.90;;;;;;5065190;28;20427;-54
2021/03/19 01:55:35;;;;;;;2.95;2.22;;;-1.50;99.90;;;;;;5055616;28;20039;-53
2021/03/19 01:58:39;;;;;;;5.15;2.22;;;-1.60;99.90;;;;;;5042119;28;20051;-57
2021/03/19 02:01:41;;;;;;;3.55;2.03;;;-1.60;99.90;;;;;;5047898;28;20107;-53
2021/03/19 02:04:45;;;;;;;3.08;1.80;;;-1.70;99.90;;;;;;5045586;28;20677;-55
2021/03/19 02:07:48;;;;;;;3.60;2.00;;;-1.70;99.90;;;;;;5052575;28;20017;-52
2021/03/19 02:10:51;;;;;;;2.92;2.00;;;-1.70;99.90;;;;;;5050781;28;20019;-52
2021/03/19 02:13:55;;;;;;;3.53;2.00;;;-1.70;99.90;;;;;;5052423;28;20017;-53
2021/03/19 02:16:58;;;;;;;2.58;2.10;;;-1.70;99.90;;;;;;5049915;28;20373;-56
2021/03/19 02:20:01;;;;;;;8.18;2.47;;;-1.70;99.90;;;;;;5048452;28;20025;-56
2021/03/19 02:23:04;;;;;;;3.80;2.33;;;-1.70;99.90;;;;;;5049750;28;20021;-55
2021/03/19 02:26:07;;;;;;;3.28;2.10;;;-1.70;99.90;;;;;;5049491;28;20154;-56
2021/03/19 02:29:10;;;;;;;2.40;2.05;;;-1.70;99.90;;;;;;5050720;28;20115;-57
2021/03/19 02:32:01;;;;;;;3.20;1.88;;;-1.80;99.90;;;;;;5050094;28;20049;-57
2021/03/19 02:34:39;;;;;;;3.25;2.13;;;-1.80;99.90;;;;;;5038205;28;20025;-56
2021/03/19 02:37:07;;;;;;;3.72;2.28;;;-1.80;99.90;;;;;;5052692;28;20041;-56
2021/03/19 02:39:33;;;;;;;3.83;2.53;;;-1.90;99.90;;;;;;5051611;28;20391;-55
2021/03/19 02:42:00;;;;;;;4.43;2.53;;;-1.90;99.90;;;;;;5051553;28;20013;-56
2021/03/19 02:44:26;;;;;;;7.78;2.85;;;-1.90;99.90;;;;;;5047213;28;20032;-56
2021/03/19 02:46:52;;;;;;;5.03;2.30;;;-1.90;99.90;;;;;;5048884;28;20044;-55
2021/03/19 02:49:17;;;;;;;3.55;2.42;;;-1.90;99.90;;;;;;5048717;28;20607;-58
2021/03/19 02:51:43;;;;;;;3.10;2.60;;;-1.90;99.90;;;;;;5043293;28;20047;-57
2021/03/19 02:54:09;;;;;;;2.80;2.17;;;-1.90;99.90;;;;;;5049729;28;20448;-58
2021/03/19 02:56:34;;;;;;;4.95;2.53;;;-2.00;99.90;;;;;;5053489;28;20092;-58
2021/03/19 02:59:00;;;;;;;4.63;2.33;;;-2.00;99.90;;;;;;5066974;28;20032;-55
2021/03/19 03:01:26;;;;;;;2.88;2.42;;;-2.00;99.90;;;;;;5063062;28;20491;-54
2021/03/19 03:03:51;;;;;;;5.53;2.60;;;-2.00;99.90;;;;;;5065845;28;20417;-55
2021/03/19 03:06:17;;;;;;;5.93;3.15;;;-2.00;99.90;;;;;;5064851;28;20032;-57
2021/03/19 03:08:42;;;;;;;3.00;2.60;;;-1.90;99.90;;;;;;5065373;28;20028;-57
2021/03/19 03:11:08;;;;;;;5.03;2.90;;;-1.90;99.90;;;;;;5065623;28;20025;-58
2021/03/19 03:13:34;;;;;;;4.15;2.80;;;-1.90;99.90;;;;;;5059770;28;20083;-57
2021/03/19 03:16:01;;;;;;;3.95;2.90;;;-1.90;99.90;;;;;;5046957;28;20521;-56
2021/03/19 03:18:27;;;;;;;6.20;3.10;;;-1.90;99.90;;;;;;5049667;28;20051;-56
2021/03/19 03:20:56;;;;;;;3.35;2.67;;;-1.90;99.90;;;;;;5049866;28;20502;-57
2021/03/19 03:23:24;;;;;;;5.20;3.25;;;-1.90;99.90;;;;;;5043990;28;20013;-55
2021/03/19 03:25:51;;;;;;;4.53;2.95;;;-1.90;99.90;;;;;;5049319;28;20025;-56
2021/03/19 03:28:17;;;;;;;4.97;2.97;;;-1.90;99.90;;;;;;5036943;28;20482;-53
2021/03/19 03:30:54;;;;;;;5.03;3.20;;;-1.80;99.90;;;;;;5040197;28;20064;-57
2021/03/19 03:33:20;;;;;;;5.00;3.13;;;-1.80;99.90;;;;;;5048336;28;20032;-56
2021/03/19 03:35:46;;;;;;;4.88;3.08;;;-1.90;99.90;;;;;;5049559;28;20029;-56
2021/03/19 03:38:15;;;;;;;4.18;3.22;;;-1.80;99.90;;;;;;5047856;28;20537;-57
2021/03/19 03:40:55;;;;;;;6.28;3.42;;;-1.80;99.90;;;;;;5036502;28;20064;-56
2021/03/19 03:43:21;;;;;;;4.78;3.35;;;-1.80;99.90;;;;;;5049060;28;20028;-56
2021/03/19 03:45:47;;;;;;;5.05;3.70;;;-1.80;99.90;;;;;;5047254;28;20621;-55
2021/03/19 03:48:15;;;;;;;5.60;3.30;;;-1.80;99.90;;;;;;5048675;28;20099;-57
2021/03/19 03:50:41;;;;;;;5.68;4.07;;;-1.80;99.90;;;;;;5048562;28;20033;-56
2021/03/19 03:53:09;;;;;;;6.50;4.20;;;-1.80;99.90;;;;;;5047793;28;20959;-57
2021/03/19 03:55:36;;;;;;;6.28;3.65;;;-1.70;99.90;;;;;;5047941;28;20017;-57
2021/03/19 03:58:03;;;;;;;5.72;3.50;;;-1.70;99.90;;;;;;5043241;28;20025;-54
2021/03/19 04:00:29;;;;;;;7.57;4.20;;;-1.70;99.90;;;;;;5035451;28;20013;-57
2021/03/19 04:02:55;;;;;;;7.72;3.65;;;-1.70;99.90;;;;;;5038073;28;20120;-55
2021/03/19 04:05:25;;;;;;;7.00;4.22;;;-1.70;99.90;;;;;;5042839;28;20100;-57
2021/03/19 04:07:50;;;;;;;6.85;4.47;;;-1.70;99.90;;;;;;5047648;28;20429;-53
2021/03/19 04:10:17;;;;;;;6.68;4.43;;;-1.60;99.90;;;;;;5048835;28;20031;-57
2021/03/19 04:12:44;;;;;;;7.47;4.78;;;-1.60;99.90;;;;;;5047755;28;20075;-55
2021/03/19 04:15:11;;;;;;;6.70;4.65;;;-1.60;99.90;;;;;;5043234;28;20021;-58
2021/03/19 04:17:36;;;;;;;6.70;4.15;;;-1.50;99.90;;;;;;5048576;28;20017;-56
2021/03/19 04:20:06;;;;;;;7.20;4.57;;;-1.40;99.90;;;;;;5048559;28;20565;-56
2021/03/19 04:22:32;;;;;;;5.13;3.75;;;-1.40;99.90;;;;;;5048064;28;20021;-57
2021/03/19 04:24:57;;;;;;;5.25;3.70;;;-1.40;99.90;;;;;;5048571;28;20094;-56
2021/03/19 04:27:28;;;;;;;5.10;4.03;;;-1.40;99.90;;;;;;5047559;28;20036;-55
2021/03/19 04:29:55;;;;;;;5.53;4.70;;;-1.30;99.90;;;;;;5048426;28;20032;-56
2021/03/19 04:32:22;;;;;;;6.07;4.30;;;-1.40;99.90;;;;;;5048026;28;20090;-57
2021/03/19 04:34:47;;;;;;;6.45;4.78;;;-1.30;99.90;;;;;;5046146;28;20040;-55
2021/03/19 04:37:13;;;;;;;7.20;4.38;;;-1.30;99.90;;;;;;5047368;28;20096;-55
2021/03/19 04:39:44;;;;;;;7.55;4.75;;;-1.30;99.90;;;;;;5042482;28;20053;-56
2021/03/19 04:42:11;;;;;;;6.68;4.07;;;-1.30;99.90;;;;;;5048444;28;20051;-56
2021/03/19 04:44:41;;;;;;;7.68;4.90;;;-1.30;99.90;;;;;;5047006;28;20040;-57
2021/03/19 04:47:07;;;;;;;8.20;4.78;;;-1.30;99.90;;;;;;5038871;28;20425;-56
2021/03/19 04:49:34;;;;;;;6.13;4.32;;;-1.30;99.90;;;;;;5048234;28;20017;-57
2021/03/19 04:52:00;;;;;;;6.53;4.68;;;-1.30;99.90;;;;;;5045435;28;20039;-56
2021/03/19 04:54:26;;;;;;;9.70;5.15;;;-1.30;99.90;;;;;;5040298;28;20052;-57
2021/03/19 04:56:51;;;;;;;7.05;5.15;;;-1.30;99.90;;;;;;5048109;28;20021;-56
2021/03/19 04:59:17;;;;;;;7.32;4.70;;;-1.30;99.90;;;;;;5048218;28;20029;-55
2021/03/19 05:01:51;;;;;;;6.57;4.40;;;-1.30;99.90;;;;;;5047919;28;20032;-55
2021/03/19 05:04:18;;;;;;;6.60;5.18;;;-1.30;99.90;;;;;;5048444;28;20032;-57
2021/03/19 05:06:44;;;;;;;6.40;5.40;;;-1.30;99.90;;;;;;5044998;28;20096;-57
2021/03/19 05:09:10;;;;;;;7.90;5.35;;;-1.30;99.90;;;;;;5052479;28;20047;-56
2021/03/19 05:11:37;;;;;;;6.70;5.40;;;-1.30;99.90;;;;;;5051079;28;20445;-57
2021/03/19 05:14:03;;;;;;;9.18;5.88;;;-1.30;99.90;;;;;;5051637;28;20028;-56
2021/03/19 05:16:28;;;;;;;7.85;4.95;;;-1.30;99.90;;;;;;5050562;28;20025;-56
2021/03/19 05:18:54;;;;;;;6.35;5.15;;;-1.40;99.90;;;;;;5051548;28;20024;-56
2021/03/19 05:21:19;;;;;;;7.30;6.03;;;-1.40;99.90;;;;;;5051638;28;20029;-57
2021/03/19 05:23:45;;;;;;;9.52;6.03;;;-1.40;99.90;;;;;;5051474;28;20457;-56
2021/03/19 05:26:10;;;;;;;7.20;5.15;;;-1.40;99.90;;;;;;5051596;28;20080;-55
2021/03/19 05:28:36;;;;;;;7.82;5.68;;;-1.40;99.90;;;;;;5051491;28;20080;-55
2021/03/19 05:31:02;;;;;;;7.00;5.32;;;-1.40;99.90;;;;;;5038603;28;20705;-56
2021/03/19 05:33:41;;;;;;;8.77;6.35;;;-1.40;99.90;;;;;;5050668;28;20017;-56
2021/03/19 05:36:07;;;;;;;9.10;5.90;;;-1.40;99.90;;;;;;5045587;28;20021;-57
2021/03/19 05:38:33;;;;;;;14.00;6.80;;;-1.30;99.90;;;;;;5040605;28;20024;-55
2021/03/19 05:40:59;;;;;;;8.02;6.28;;;-1.30;99.90;;;;;;5051474;28;20021;-57
2021/03/19 05:43:29;;;;;;;10.18;7.10;;;-1.20;99.90;;;;;;5049676;28;20013;-56
2021/03/19 05:46:08;;;;;;;10.18;6.43;;;-1.20;99.90;;;;;;5049797;28;20017;-55
2021/03/19 05:48:51;;;;;;;10.05;6.05;;;-1.20;99.90;;;;;;5051657;28;20017;-55
2021/03/19 05:51:27;;;;;;;9.15;6.45;;;-1.20;99.90;;;;;;5051581;28;20151;-56
2021/03/19 05:53:56;;;;;;;14.07;7.43;;;-1.20;99.90;;;;;;5051589;28;20040;-55
2021/03/19 05:56:27;;;;;;;9.90;7.18;;;-1.10;99.90;;;;;;5051278;28;20029;-57
2021/03/19 05:58:52;;;;;;;8.35;6.85;;;-1.10;99.90;;;;;;5050094;28;20047;-56
2021/03/19 06:01:18;;;;;;;17.90;7.55;;;-1.00;99.90;;;;;;5051296;28;20505;-57
2021/03/19 06:03:45;;;;;;;9.80;7.28;;;-1.00;99.90;;;;;;5050930;28;20382;-52
2021/03/19 06:06:13;;;;;;;8.32;6.43;;;-1.00;99.90;;;;;;5050637;28;20559;-57
2021/03/19 06:08:44;;;;;;;9.38;6.75;;;-1.00;99.90;;;;;;5050077;28;20021;-58
2021/03/19 06:11:12;;;;;;;9.43;6.82;;;-1.00;99.90;;;;;;5039919;28;20265;-53
2021/03/19 06:13:49;;;;;;;10.98;7.90;;;-0.90;99.90;;;;;;5049411;28;20025;-57
2021/03/19 06:16:20;;;;;;;;;;;-0.90;99.90;;;;;;5051360;28;20064;-57
2021/03/19 06:18:51;;;;;;;11.52;6.68;;;-0.80;99.90;;;;;;5049893;28;19913;-56
2021/03/19 06:21:19;;;;;;;11.48;6.20;;;-0.80;99.90;;;;;;5050831;28;20021;-56
2021/03/19 06:24:03;;;;;;;9.45;7.25;;;-0.70;99.90;;;;;;5050718;28;20021;-57
2021/03/19 06:26:34;;;;;;;10.07;7.25;;;-0.70;99.90;;;;;;5050945;28;20013;-57
2021/03/19 06:29:19;;;;;;;9.93;6.40;;;-0.60;99.90;;;;;;5049597;28;20090;-56
2021/03/19 06:32:12;;;;;;;12.93;7.68;;;-0.60;99.90;;;;;;5049439;28;20028;-56
2021/03/19 06:34:52;;;;;;;8.95;7.03;;;-0.50;99.90;;;;;;5049257;28;20055;-55
2021/03/19 06:37:31;;;;;;;11.60;7.90;;;-0.40;99.90;;;;;;5050458;28;20096;-55
2021/03/19 06:40:04;;;;;;;8.43;7.10;;;-0.40;99.90;;;;;;5047449;28;20018;-56
2021/03/19 06:42:34;;;;;;;10.82;7.43;;;-0.40;99.90;;;;;;5046753;28;20025;-56
2021/03/19 06:45:18;;;;;;;9.52;7.47;;;-0.30;99.90;;;;;;5044585;28;20056;-58
2021/03/19 06:47:56;;;;;;;10.85;7.70;;;-0.30;99.90;;;;;;5046823;28;20100;-57
2021/03/19 06:50:22;;;;;;;11.70;7.68;;;-0.20;99.90;;;;;;5046249;28;20025;-57
2021/03/19 06:52:48;;;;;;;12.63;7.35;;;-0.20;99.90;;;;;;5048542;28;20525;-56
2021/03/19 06:55:37;;;;;;;10.45;6.78;;;-0.10;99.90;;;;;;5049830;28;20120;-54
2021/03/19 06:58:03;;;;;;;11.20;7.13;;;0.00;99.90;;;;;;5050119;28;20028;-56
2021/03/19 07:00:41;;;;;;;10.45;6.43;;;0.00;99.90;;;;;;5040041;28;20017;-56
2021/03/19 07:03:12;;;;;;;10.57;7.53;;;0.10;99.90;;;;;;5054451;22;20099;-48
2021/03/19 07:05:57;;;;;;;11.80;7.38;;;0.10;99.90;;;;;;5019738;28;20478;-50
2021/03/19 07:08:50;;;;;;;10.77;7.65;;;0.20;99.90;;;;;;5029801;28;20120;-51
2021/03/19 07:11:53;;;;;;;8.85;6.57;;;0.20;99.90;;;;;;5029265;28;20025;-48
2021/03/19 07:14:52;;;;;;;14.63;7.57;;;0.30;99.90;;;;;;5021932;28;20048;-47
2021/03/19 07:17:57;;;;;;;11.40;6.43;;;0.40;99.90;;;;;;5027988;28;20036;-49
2021/03/19 07:20:54;;;;;;;9.43;6.45;;;0.50;99.90;;;;;;4991278;28;20142;-49
2021/03/19 07:23:26;;;;;;;9.38;7.05;;;0.60;99.90;;;;;;5026837;28;20033;-48
2021/03/19 07:26:09;;;;;;;12.73;7.20;;;0.60;99.90;;;;;;5028586;28;20022;-47
2021/03/19 07:29:24;;;;;;;10.18;7.05;;;0.60;99.90;;;;;;5022653;28;20033;-49
2021/03/19 07:32:18;;;;;;;9.68;6.80;;;0.70;99.90;;;;;;5026730;28;20022;-48
2021/03/19 07:34:49;;;;;;;10.50;6.93;;;0.80;99.90;;;;;;5023129;28;20118;-48
2021/03/19 07:37:52;;;;;;;9.60;6.68;;;1.00;99.90;;;;;;5027124;28;20034;-49
2021/03/19 07:40:29;;;;;;;18.80;7.45;;;1.10;99.90;;;;;;5015802;28;20052;-49
2021/03/19 07:43:32;;;;;;;10.73;6.53;;;1.30;99.90;;;;;;5027333;28;20479;-48
2021/03/19 07:46:13;;;;;;;11.68;7.28;;;1.60;99.90;;;;;;5020379;28;20025;-47
2021/03/19 07:48:47;;;;;;;9.93;6.75;;;1.80;99.90;;;;;;5026169;28;20471;-48
2021/03/19 07:51:31;;;;;;;7.57;5.63;;;2.00;99.90;;;;;;5024905;28;20024;-50
2021/03/19 07:54:13;;;;;;;12.48;6.22;;;2.20;99.90;;;;;;5025327;28;20036;-46
2021/03/19 07:56:44;;;;;;;7.20;5.65;;;2.40;99.90;;;;;;5025603;28;20049;-45
2021/03/19 07:59:13;;;;;;;13.38;5.72;;;2.70;99.90;;;;;;5026429;28;20051;-48
2021/03/19 08:02:09;;;;;;;7.43;5.28;;;2.90;99.90;;;;;;5027987;28;20530;-48
2021/03/19 08:04:43;;;;;;;7.35;4.88;;;3.00;99.90;;;;;;5026594;28;20033;-47
2021/03/19 08:07:18;;;;;;;8.52;4.80;;;3.10;99.90;;;;;;5027289;28;20021;-50
2021/03/19 08:10:18;;;;;;;7.22;4.95;;;3.10;99.90;;;;;;5028455;28;20544;-47
2021/03/19 08:12:54;;;;;;;7.75;4.07;;;3.10;99.90;;;;;;5025792;28;20029;-47
2021/03/19 08:15:24;;;;;;;7.35;4.68;;;3.10;99.90;;;;;;5026915;28;20024;-45
2021/03/19 08:18:01;;;;;;;5.93;4.72;;;2.90;99.90;;;;;;5023988;28;20022;-47
2021/03/19 08:20:50;;;;;;;6.55;4.05;;;2.90;99.90;;;;;;5025810;28;20018;-51
2021/03/19 08:23:26;;;;;;;9.52;4.63;;;3.00;99.90;;;;;;5027590;28;20040;-48
2021/03/19 08:25:52;;;;;;;6.15;4.68;;;3.20;99.90;;;;;;5022614;28;20391;-48
2021/03/19 08:28:29;;;;;;;7.47;4.95;;;3.20;99.90;;;;;;5023338;28;20499;-46
2021/03/19 08:31:14;;;;;;;6.85;4.72;;;3.10;99.90;;;;;;5026705;28;20113;-47
2021/03/19 08:34:33;;;;;;;8.38;4.57;;;3.10;99.90;;;;;;5025811;28;20022;-48
2021/03/19 08:36:59;;;;;;;10.18;5.20;;;3.10;99.90;;;;;;4946971;28;20270;-50
2021/03/19 08:39:39;;;;;;;6.22;4.10;;;3.00;99.90;;;;;;5007370;28;20708;-48
2021/03/19 08:42:14;;;;;;;6.22;4.75;;;3.10;99.90;;;;;;5024659;28;20018;-46
2021/03/19 08:44:40;;;;;;;5.85;3.67;;;3.30;99.90;;;;;;5030921;28;20028;-50
2021/03/19 08:47:22;;;;;;;8.02;3.40;;;3.70;99.90;;;;;;5031849;28;20017;-50
2021/03/19 08:49:51;;;;;;;7.10;3.35;;;4.00;99.90;;;;;;5029884;28;20897;-50
2021/03/19 08:52:35;;;;;;;4.05;2.67;;;4.00;99.90;;;;;;5029647;28;20487;-54
2021/03/19 08:55:13;;;;;;;4.30;3.00;;;3.80;99.90;;;;;;5031613;28;20049;-47
2021/03/19 08:57:41;;;;;;;5.63;2.50;;;3.60;99.90;;;;;;5026293;28;20030;-47
2021/03/19 09:00:21;;;;;;;4.05;2.92;;;3.60;99.90;;;;;;5024087;28;20431;-49
2021/03/19 09:02:51;;;;;;;5.82;2.25;;;3.80;99.90;;;;;;5032019;28;20029;-49
2021/03/19 09:05:27;;;;;;;2.40;2.20;;;4.00;99.90;;;;;;5031593;28;20433;-46
2021/03/19 09:08:14;;;;;;;;;;;4.10;99.90;;;;;;5032518;28;20057;-50
2021/03/19 09:10:39;;;;;;;2.03;1.70;;;4.30;99.90;;;;;;5022306;28;19909;-52
2021/03/19 09:13:08;;;;;;;2.70;1.80;;;4.30;99.90;;;;;;5031422;28;20024;-48
2021/03/19 09:15:39;;;;;;;2.80;1.70;;;4.30;99.90;;;;;;5030372;28;20679;-48
2021/03/19 09:18:25;;;;;;;2.67;1.50;;;4.30;99.90;;;;;;5029820;28;20115;-50
2021/03/19 09:21:11;;;;;;;3.55;1.85;;;4.50;99.90;;;;;;5024904;28;20419;-51
2021/03/19 09:23:55;;;;;;;2.45;1.85;;;4.80;99.90;;;;;;5015549;28;20018;-48
2021/03/19 09:26:20;;;;;;;2.33;1.58;;;4.90;99.90;;;;;;5030371;28;20384;-50
2021/03/19 09:29:20;;;;;;;3.17;1.58;;;5.10;99.90;;;;;;5031770;28;20033;-50
2021/03/19 09:31:54;;;;;;;2.20;1.70;;;5.30;99.90;;;;;;5031765;28;20033;-49
2021/03/19 09:34:42;;;;;;;2.58;1.60;;;5.40;99.90;;;;;;5030968;28;20018;-52
2021/03/19 09:37:35;;;;;;;4.18;1.95;;;5.50;99.90;;;;;;5023857;28;20095;-50
2021/03/19 09:40:01;;;;;;;2.17;1.40;;;5.50;99.90;;;;;;5028674;28;20534;-50
2021/03/19 09:42:28;;;;;;;2.97;1.10;;;5.60;99.90;;;;;;5014779;28;20030;-50
2021/03/19 09:44:59;;;;;;;2.28;1.25;;;5.50;99.90;;;;;;5019829;28;20035;-49
2021/03/19 09:47:38;;;;;;;1.15;0.80;;;5.80;99.90;;;;;;5027468;28;20047;-47
2021/03/19 09:50:07;;;;;;;1.23;0.85;;;5.90;99.90;;;;;;5029613;28;20024;-47
2021/03/19 09:52:32;;;;;;;1.35;0.77;;;5.90;99.90;;;;;;5031025;28;20025;-53
2021/03/19 09:54:58;;;;;;;3.03;1.10;;;6.20;99.90;;;;;;5016057;28;20064;-50
2021/03/19 09:57:29;;;;;;;1.88;0.77;;;5.90;99.90;;;;;;5031239;28;20021;-50
2021/03/19 10:00:04;;;;;;;0.68;0.68;;;5.70;99.90;;;;;;5029914;28;20029;-50
2021/03/19 10:02:36;;;;;;;0.80;0.80;;;5.50;99.90;;;;;;5024869;28;20024;-50
2021/03/19 10:05:25;;;;;;;1.10;0.98;;;5.20;99.90;;;;;;5013627;28;20030;-49
2021/03/19 10:07:59;;;;;;;1.92;1.25;;;5.20;99.90;;;;;;5018059;28;20087;-50
2021/03/19 10:10:42;;;;;;;1.70;1.17;;;5.10;99.90;;;;;;5020574;28;20112;-51
2021/03/19 10:13:23;;;;;;;1.17;0.82;;;5.10;99.90;;;;;;5018012;28;20029;-53
2021/03/19 10:15:52;;;;;;;1.55;0.88;;;5.20;99.90;;;;;;5022061;28;20466;-51
2021/03/19 10:18:26;;;;;;;0.88;0.68;;;5.30;99.90;;;;;;5021891;28;20060;-47
2021/03/19 10:20:58;;;;;;;0.50;0.50;;;5.20;99.90;;;;;;5030566;28;20025;-52
2021/03/19 10:23:34;;;;;;;0.82;0.60;;;5.10;99.90;;;;;;5029509;28;20029;-49
2021/03/19 10:26:06;;;;;;;1.27;0.73;;;5.10;99.90;;;;;;5024970;28;20026;-53
2021/03/19 10:28:33;;;;;;;1.33;0.77;;;5.30;99.90;;;;;;5030522;28;20078;-49
2021/03/19 10:31:02;;;;;;;1.83;0.73;;;5.50;99.90;;;;;;5018900;28;20525;-50
2021/03/19 10:34:06;;;;;;;2.40;0.73;;;5.80;99.90;;;;;;5020780;28;20567;-45
2021/03/19 10:36:43;;;;;;;3.40;1.02;;;6.00;99.90;;;;;;4961551;28;20046;-48
2021/03/19 10:39:23;;;;;;;2.97;0.60;;;5.80;99.90;;;;;;5007984;28;20381;-48
2021/03/19 10:41:55;;;;;;;0.50;0.43;;;5.50;99.90;;;;;;5022172;28;20025;-48
2021/03/19 10:44:28;;;;;;;0.52;0.40;;;5.20;99.90;;;;;;5020098;28;20029;-47
2021/03/19 10:47:07;;;;;;;0.32;0.32;;;5.30;99.90;;;;;;5021171;28;20022;-50
2021/03/19 10:49:38;;;;;;;1.60;0.65;;;5.30;99.90;;;;;;5024482;28;20030;-48
2021/03/19 10:52:10;;;;;;;1.00;0.63;;;5.40;99.90;;;;;;5022443;28;20031;-52
2021/03/19 10:54:42;;;;;;;1.83;0.88;;;5.50;99.90;;;;;;5026127;28;20025;-51
2021/03/19 10:57:37;;;;;;;0.80;0.65;;;5.70;99.90;;;;;;5017912;28;20022;-47
2021/03/19 11:00:40;;;;;;;1.42;0.82;;;5.80;99.90;;;;;;5029440;28;20411;-51
2021/03/19 11:03:07;;;;;;;2.78;0.52;;;5.60;99.90;;;;;;5028645;28;20026;-51
2021/03/19 11:06:00;;;;;;;1.75;0.75;;;5.70;99.90;;;;;;5027539;28;20109;-46
2021/03/19 11:08:26;;;;;;;2.03;0.90;;;5.70;99.90;;;;;;5025593;28;20026;-48
2021/03/19 11:10:53;;;;;;;2.95;1.33;;;5.40;99.90;;;;;;5013955;28;20033;-46
2021/03/19 11:13:26;;;;;;;1.90;1.00;;;5.30;99.90;;;;;;5010897;28;20045;-48
2021/03/19 11:15:58;;;;;;;2.05;0.85;;;5.40;99.90;;;;;;5025592;28;20561;-47
2021/03/19 11:18:39;;;;;;;2.35;1.25;;;5.50;99.90;;;;;;5029640;28;20029;-47
2021/03/19 11:21:08;;;;;;;2.15;1.13;;;5.60;99.90;;;;;;5026386;28;20020;-46
2021/03/19 11:23:46;;;;;;;4.30;1.13;;;5.70;99.90;;;;;;5029664;28;20654;-48
2021/03/19 11:26:18;;;;;;;2.13;1.23;;;5.50;99.90;;;;;;5027819;28;20083;-46
2021/03/19 11:28:46;;;;;;;4.35;1.15;;;5.50;99.90;;;;;;5029423;28;20025;-47
2021/03/19 11:31:14;;;;;;;5.30;1.80;;;5.40;99.90;;;;;;5015996;28;20049;-49
2021/03/19 11:33:58;;;;;;;0.98;0.88;;;5.20;99.90;;;;;;5029391;28;20029;-46
2021/03/19 11:36:24;;;;;;;0.95;0.88;;;5.10;99.90;;;;;;5028870;28;20033;-47
2021/03/19 11:38:51;;;;;;;0.90;0.80;;;5.10;99.90;;;;;;5029304;28;20029;-50
2021/03/19 11:41:37;;;;;;;3.53;1.17;;;5.20;99.90;;;;;;5028817;28;20051;-49
2021/03/19 11:44:03;;;;;;;2.35;1.00;;;5.30;99.90;;;;;;5028913;28;20025;-49
2021/03/19 11:46:29;;;;;;;0.82;0.65;;;5.30;99.00;;;;;;5028527;28;20056;-47
2021/03/19 11:48:55;;;;;;;1.90;0.77;;;5.20;99.40;;;;;;5028834;28;20688;-47
2021/03/19 11:51:32;;;;;;;1.67;0.90;;;5.30;99.90;;;;;;5027698;28;20017;-48
2021/03/19 11:54:02;;;;;;;3.35;0.95;;;5.40;98.50;;;;;;5029412;28;20411;-48
2021/03/19 11:56:30;;;;;;;2.88;0.82;;;5.30;96.60;;;;;;5028348;28;20124;-51
2021/03/19 11:58:57;;;;;;;1.25;1.05;;;5.30;97.20;;;;;;5028849;28;20515;-50
2021/03/19 12:01:23;;;;;;;1.90;0.85;;;5.30;99.10;;;;;;5028907;28;20029;-49
2021/03/19 12:03:53;;;;;;;1.02;0.90;;;5.50;98.10;;;;;;5014196;28;20029;-51
2021/03/19 12:06:29;;;;;;;2.72;0.90;;;5.60;96.90;;;;;;5028836;28;20021;-50
2021/03/19 12:08:55;;;;;;;6.65;1.45;;;5.40;97.90;;;;;;5028671;28;20026;-52
2021/03/19 12:11:28;;;;;;;3.90;0.98;;;5.40;98.10;;;;;;5017089;28;20030;-46
2021/03/19 12:13:55;;;;;;;3.05;1.23;;;5.40;98.00;;;;;;5026919;28;20165;-49
2021/03/19 12:16:20;;;;;;;3.83;1.02;;;5.50;97.40;;;;;;5026453;28;20029;-49
2021/03/19 12:18:47;;;;;;;2.60;1.35;;;5.70;97.60;;;;;;5028621;28;20029;-47
2021/03/19 12:21:12;;;;;;;2.03;1.02;;;5.80;96.90;;;;;;5028477;28;20018;-47
2021/03/19 12:23:38;;;;;;;1.38;1.08;;;5.80;96.60;;;;;;5028476;28;20016;-48
2021/03/19 12:26:03;;;;;;;2.40;1.17;;;6.00;97.80;;;;;;5026983;28;20129;-50
2021/03/19 12:28:29;;;;;;;1.77;1.10;;;5.90;96.30;;;;;;5028914;28;20457;-48
2021/03/19 12:30:57;;;;;;;2.05;1.40;;;5.70;96.20;;;;;;5028320;28;20021;-46
2021/03/19 12:33:23;;;;;;;4.03;1.52;;;5.60;96.60;;;;;;5028472;28;20470;-50
2021/03/19 12:35:50;;;;;;;2.25;1.20;;;5.60;97.20;;;;;;5020177;28;20029;-51
2021/03/19 12:38:16;;;;;;;3.17;1.20;;;5.60;97.60;;;;;;5021561;28;20026;-48
2021/03/19 12:40:43;;;;;;;2.22;1.13;;;5.80;97.90;;;;;;5028047;28;20065;-48
2021/03/19 12:43:11;;;;;;;3.38;1.20;;;6.00;96.90;;;;;;5027536;28;20614;-48
2021/03/19 12:45:37;;;;;;;1.63;1.30;;;5.80;95.90;;;;;;5026228;28;20117;-47
2021/03/19 12:48:04;;;;;;;2.08;1.10;;;5.50;96.60;;;;;;5025753;28;20451;-47
2021/03/19 12:50:31;;;;;;;1.95;1.23;;;5.40;96.30;;;;;;5027845;28;20029;-52
2021/03/19 12:52:57;;;;;;;2.35;1.05;;;5.40;96.20;;;;;;5027949;28;20466;-48
2021/03/19 12:55:24;;;;;;;4.93;1.50;;;5.10;97.10;;;;;;5027699;28;20112;-50
2021/03/19 12:57:50;;;;;;;4.47;1.35;;;4.90;98.80;;;;;;5013851;28;20061;-50
2021/03/19 13:00:19;;;;;;;3.47;1.10;;;4.70;98.50;;;;;;5022975;28;20466;-48
2021/03/19 13:02:44;;;;;;;3.70;1.33;;;4.60;97.70;;;;;;5021715;28;20022;-47
2021/03/19 13:05:11;;;;;;;1.27;1.00;;;4.50;99.00;;;;;;4968410;22;20525;-64
2021/03/19 13:07:37;;;;;;;3.00;1.42;;;4.60;99.70;;;;;;4944270;28;20074;-62
2021/03/19 13:10:03;;;;;;;4.28;1.50;;;4.50;99.90;;;;;;4945504;29;20056;-63
2021/03/19 13:12:29;;;;;;;4.30;1.50;;;4.40;99.90;;;;;;4947560;29;20019;-63
2021/03/19 13:14:55;;;;;;;2.70;1.42;;;4.20;99.90;;;;;;4946996;29;20469;-63
2021/03/19 13:17:21;;;;;;;3.75;1.63;;;4.10;99.90;;;;;;4946186;28;20023;-62
2021/03/19 13:19:46;;;;;;;4.93;1.50;;;4.20;99.90;;;;;;5002015;28;20031;-64
2021/03/19 13:22:12;;;;;;;3.22;1.77;;;4.30;99.90;;;;;;4947385;28;20031;-64